sensor_id;sensor_type;location;lat;lon;timestamp;temperature;humidity
11501;DHT22;5807;51.606;7.624;2022-08-21T00:00:08;15.40;99.90
11501;DHT22;5807;51.606;7.624;2022-08-21T00:05:03;15.30;99.90
11501;DHT22;5807;51.606;7.624;2022-08-21T00:14:53;15.30;99.90
11501;DHT22;5807;51.606;7.624;2022-08-21T00:19:50;15.30;99.90
11501;DHT22;5807;51.606;7.624;2022-08-21T00:51:50;15.30;99.90
11501;DHT22;5807;51.606;7.624;2022-08-21T00:54:19;15.30;99.90
11501;DHT22;5807;51.606;7.624;2022-08-21T00:56:50;15.30;99.90
11501;DHT22;5807;51.606;7.624;2022-08-21T00:59:21;15.30;99.90
11501;DHT22;5807;51.606;7.624;2022-08-21T01:01:49;15.40;99.90
11501;DHT22;5807;51.606;7.624;2022-08-21T01:04:18;15.40;99.90
11501;DHT22;5807;51.606;7.624;2022-08-21T01:09:13;15.40;99.90
11501;DHT22;5807;51.606;7.624;2022-08-21T01:16:39;15.30;99.90
11501;DHT22;5807;51.606;7.624;2022-08-21T01:26:33;15.20;99.90
11501;DHT22;5807;51.606;7.624;2022-08-21T01:31:30;15.10;99.90
11501;DHT22;5807;51.606;7.624;2022-08-21T01:36:26;15.20;99.90
11501;DHT22;5807;51.606;7.624;2022-08-21T01:51:11;15.40;99.90
11501;DHT22;5807;51.606;7.624;2022-08-21T01:53:39;15.50;99.90
11501;DHT22;5807;51.606;7.624;2022-08-21T01:56:10;15.50;99.90
11501;DHT22;5807;51.606;7.624;2022-08-21T02:20:49;15.60;99.90
11501;DHT22;5807;51.606;7.624;2022-08-21T02:28:13;15.40;99.90
11501;DHT22;5807;51.606;7.624;2022-08-21T02:30:45;15.30;99.90
11501;DHT22;5807;51.606;7.624;2022-08-21T02:35:44;15.20;99.90
11501;DHT22;5807;51.606;7.624;2022-08-21T02:38:13;15.20;99.90
11501;DHT22;5807;51.606;7.624;2022-08-21T02:40:43;15.10;99.90
11501;DHT22;5807;51.606;7.624;2022-08-21T02:48:09;15.00;99.90
11501;DHT22;5807;51.606;7.624;2022-08-21T02:50:39;15.00;99.90
11501;DHT22;5807;51.606;7.624;2022-08-21T02:53:07;14.90;99.90
11501;DHT22;5807;51.606;7.624;2022-08-21T02:55:36;14.90;99.90
11501;DHT22;5807;51.606;7.624;2022-08-21T02:58:05;14.80;99.90
11501;DHT22;5807;51.606;7.624;2022-08-21T03:00:35;14.80;99.90
11501;DHT22;5807;51.606;7.624;2022-08-21T03:05:34;14.70;99.90
11501;DHT22;5807;51.606;7.624;2022-08-21T03:08:04;14.70;99.90
11501;DHT22;5807;51.606;7.624;2022-08-21T03:20:26;14.30;99.90
11501;DHT22;5807;51.606;7.624;2022-08-21T03:25:24;14.30;99.90
11501;DHT22;5807;51.606;7.624;2022-08-21T03:30:20;14.30;99.90
11501;DHT22;5807;51.606;7.624;2022-08-21T03:35:17;14.30;99.90
11501;DHT22;5807;51.606;7.624;2022-08-21T03:40:18;14.10;99.90
11501;DHT22;5807;51.606;7.624;2022-08-21T03:42:46;14.10;99.90
11501;DHT22;5807;51.606;7.624;2022-08-21T03:45:15;14.10;99.90
11501;DHT22;5807;51.606;7.624;2022-08-21T03:47:51;14.10;99.90
11501;DHT22;5807;51.606;7.624;2022-08-21T03:55:13;14.00;99.90
11501;DHT22;5807;51.606;7.624;2022-08-21T04:00:11;13.90;99.90
11501;DHT22;5807;51.606;7.624;2022-08-21T04:05:07;13.80;99.90
11501;DHT22;5807;51.606;7.624;2022-08-21T04:10:02;13.70;99.90
11501;DHT22;5807;51.606;7.624;2022-08-21T04:17:27;13.70;99.90
11501;DHT22;5807;51.606;7.624;2022-08-21T04:19:54;13.70;99.90
11501;DHT22;5807;51.606;7.624;2022-08-21T04:22:21;13.60;99.90
11501;DHT22;5807;51.606;7.624;2022-08-21T04:24:47;13.60;99.90
11501;DHT22;5807;51.606;7.624;2022-08-21T04:29:42;13.50;99.90
11501;DHT22;5807;51.606;7.624;2022-08-21T04:32:10;13.50;99.90
11501;DHT22;5807;51.606;7.624;2022-08-21T04:34:37;13.50;99.90
11501;DHT22;5807;51.606;7.624;2022-08-21T04:37:04;13.50;99.90
11501;DHT22;5807;51.606;7.624;2022-08-21T04:39:39;13.50;99.90
11501;DHT22;5807;51.606;7.624;2022-08-21T04:44:34;13.50;99.90
11501;DHT22;5807;51.606;7.624;2022-08-21T04:47:01;13.50;99.90
11501;DHT22;5807;51.606;7.624;2022-08-21T04:56:53;13.60;99.90
11501;DHT22;5807;51.606;7.624;2022-08-21T04:59:26;13.60;99.90
11501;DHT22;5807;51.606;7.624;2022-08-21T05:01:54;13.60;99.90
11501;DHT22;5807;51.606;7.624;2022-08-21T05:04:23;13.70;99.90
11501;DHT22;5807;51.606;7.624;2022-08-21T05:06:54;13.70;99.90
11501;DHT22;5807;51.606;7.624;2022-08-21T05:09:23;13.70;99.90
11501;DHT22;5807;51.606;7.624;2022-08-21T05:11:51;13.70;99.90
11501;DHT22;5807;51.606;7.624;2022-08-21T05:19:13;13.90;99.90
11501;DHT22;5807;51.606;7.624;2022-08-21T05:21:43;14.00;99.90
11501;DHT22;5807;51.606;7.624;2022-08-21T05:29:06;14.10;99.90
11501;DHT22;5807;51.606;7.624;2022-08-21T05:31:33;14.30;99.90
11501;DHT22;5807;51.606;7.624;2022-08-21T05:36:27;14.40;99.90
11501;DHT22;5807;51.606;7.624;2022-08-21T05:46:17;14.70;99.90
11501;DHT22;5807;51.606;7.624;2022-08-21T05:51:14;15.00;99.90
11501;DHT22;5807;51.606;7.624;2022-08-21T05:53:42;15.00;99.90
11501;DHT22;5807;51.606;7.624;2022-08-21T05:56:09;15.20;99.90
11501;DHT22;5807;51.606;7.624;2022-08-21T06:01:06;15.50;99.90
11501;DHT22;5807;51.606;7.624;2022-08-21T06:03:36;15.90;99.90
11501;DHT22;5807;51.606;7.624;2022-08-21T06:06:04;15.90;99.90
11501;DHT22;5807;51.606;7.624;2022-08-21T06:11:00;16.40;99.90
11501;DHT22;5807;51.606;7.624;2022-08-21T06:13:28;16.90;99.90
11501;DHT22;5807;51.606;7.624;2022-08-21T06:16:03;17.10;99.90
11501;DHT22;5807;51.606;7.624;2022-08-21T06:20:59;17.30;99.90
11501;DHT22;5807;51.606;7.624;2022-08-21T06:53:44;19.90;99.90
11501;DHT22;5807;51.606;7.624;2022-08-21T06:56:13;20.20;99.90
11501;DHT22;5807;51.606;7.624;2022-08-21T07:03:38;20.60;99.90
11501;DHT22;5807;51.606;7.624;2022-08-21T07:06:07;21.00;99.90
11501;DHT22;5807;51.606;7.624;2022-08-21T07:08:35;21.40;99.90
11501;DHT22;5807;51.606;7.624;2022-08-21T07:11:09;21.50;99.90
11501;DHT22;5807;51.606;7.624;2022-08-21T07:13:37;21.60;99.90
11501;DHT22;5807;51.606;7.624;2022-08-21T07:16:05;21.70;99.90
11501;DHT22;5807;51.606;7.624;2022-08-21T07:18:32;22.10;99.90
11501;DHT22;5807;51.606;7.624;2022-08-21T07:21:00;22.30;99.90
11501;DHT22;5807;51.606;7.624;2022-08-21T07:23:29;22.40;99.90
11501;DHT22;5807;51.606;7.624;2022-08-21T07:25:57;22.60;99.90
11501;DHT22;5807;51.606;7.624;2022-08-21T07:28:25;22.70;99.90
11501;DHT22;5807;51.606;7.624;2022-08-21T07:30:53;22.80;99.90
11501;DHT22;5807;51.606;7.624;2022-08-21T07:33:30;22.90;99.90
11501;DHT22;5807;51.606;7.624;2022-08-21T07:35:58;22.80;99.90
11501;DHT22;5807;51.606;7.624;2022-08-21T07:38:26;22.90;99.90
11501;DHT22;5807;51.606;7.624;2022-08-21T07:40:55;23.20;99.90
11501;DHT22;5807;51.606;7.624;2022-08-21T07:43:24;23.30;99.90
11501;DHT22;5807;51.606;7.624;2022-08-21T07:45:51;23.30;99.90
11501;DHT22;5807;51.606;7.624;2022-08-21T07:48:19;23.20;99.90
11501;DHT22;5807;51.606;7.624;2022-08-21T07:50:46;22.90;99.90
11501;DHT22;5807;51.606;7.624;2022-08-21T07:53:13;22.90;99.90
11501;DHT22;5807;51.606;7.624;2022-08-21T07:55:41;22.80;99.90
11501;DHT22;5807;51.606;7.624;2022-08-21T07:58:09;22.80;99.90
11501;DHT22;5807;51.606;7.624;2022-08-21T08:00:36;22.80;99.90
11501;DHT22;5807;51.606;7.624;2022-08-21T08:03:03;22.60;99.90
11501;DHT22;5807;51.606;7.624;2022-08-21T08:05:31;22.60;99.90
11501;DHT22;5807;51.606;7.624;2022-08-21T08:07:58;22.90;99.90
11501;DHT22;5807;51.606;7.624;2022-08-21T08:10:25;23.20;99.90
11501;DHT22;5807;51.606;7.624;2022-08-21T08:12:53;23.40;99.90
11501;DHT22;5807;51.606;7.624;2022-08-21T08:15:22;23.60;99.90
11501;DHT22;5807;51.606;7.624;2022-08-21T08:17:49;23.70;99.90
11501;DHT22;5807;51.606;7.624;2022-08-21T08:20:30;23.80;99.90
11501;DHT22;5807;51.606;7.624;2022-08-21T08:22:58;23.70;99.90
11501;DHT22;5807;51.606;7.624;2022-08-21T08:25:26;23.80;99.90
11501;DHT22;5807;51.606;7.624;2022-08-21T08:27:54;23.80;99.90
11501;DHT22;5807;51.606;7.624;2022-08-21T08:30:21;23.80;99.90
11501;DHT22;5807;51.606;7.624;2022-08-21T08:32:49;24.10;99.90
11501;DHT22;5807;51.606;7.624;2022-08-21T08:35:16;24.00;99.90
11501;DHT22;5807;51.606;7.624;2022-08-21T08:37:43;24.10;99.90
11501;DHT22;5807;51.606;7.624;2022-08-21T08:40:12;24.20;99.90
11501;DHT22;5807;51.606;7.624;2022-08-21T08:42:40;24.20;99.90
11501;DHT22;5807;51.606;7.624;2022-08-21T08:45:13;24.40;99.90
11501;DHT22;5807;51.606;7.624;2022-08-21T08:47:43;24.60;99.90
11501;DHT22;5807;51.606;7.624;2022-08-21T08:50:17;24.60;99.70
11501;DHT22;5807;51.606;7.624;2022-08-21T08:52:48;24.60;99.80
11501;DHT22;5807;51.606;7.624;2022-08-21T08:55:23;24.70;99.90
11501;DHT22;5807;51.606;7.624;2022-08-21T08:57:53;24.60;99.90
11501;DHT22;5807;51.606;7.624;2022-08-21T09:00:22;24.60;99.00
11501;DHT22;5807;51.606;7.624;2022-08-21T09:02:53;24.70;99.90
11501;DHT22;5807;51.606;7.624;2022-08-21T09:05:24;24.40;98.50
11501;DHT22;5807;51.606;7.624;2022-08-21T09:08:07;24.40;99.40
11501;DHT22;5807;51.606;7.624;2022-08-21T09:10:45;24.50;99.00
11501;DHT22;5807;51.606;7.624;2022-08-21T09:13:19;24.10;98.80
11501;DHT22;5807;51.606;7.624;2022-08-21T09:15:53;23.90;99.00
11501;DHT22;5807;51.606;7.624;2022-08-21T09:18:32;23.70;99.90
11501;DHT22;5807;51.606;7.624;2022-08-21T09:21:11;23.70;99.90
11501;DHT22;5807;51.606;7.624;2022-08-21T09:23:49;23.60;99.90
11501;DHT22;5807;51.606;7.624;2022-08-21T09:26:21;23.50;99.90
11501;DHT22;5807;51.606;7.624;2022-08-21T09:28:52;23.20;99.90
11501;DHT22;5807;51.606;7.624;2022-08-21T09:31:25;23.60;99.90
11501;DHT22;5807;51.606;7.624;2022-08-21T09:33:57;23.80;99.20
11501;DHT22;5807;51.606;7.624;2022-08-21T09:36:32;23.90;97.20
11501;DHT22;5807;51.606;7.624;2022-08-21T09:38:59;24.10;95.90
11501;DHT22;5807;51.606;7.624;2022-08-21T09:41:29;24.50;97.50
11501;DHT22;5807;51.606;7.624;2022-08-21T09:46:26;25.50;92.80
11501;DHT22;5807;51.606;7.624;2022-08-21T09:48:55;25.50;93.10
11501;DHT22;5807;51.606;7.624;2022-08-21T09:51:24;25.50;92.50
11501;DHT22;5807;51.606;7.624;2022-08-21T09:53:54;25.40;93.00
11501;DHT22;5807;51.606;7.624;2022-08-21T09:56:29;25.50;92.70
11501;DHT22;5807;51.606;7.624;2022-08-21T09:59:24;25.50;93.50
11501;DHT22;5807;51.606;7.624;2022-08-21T10:01:54;25.80;93.90
11501;DHT22;5807;51.606;7.624;2022-08-21T10:04:28;25.80;93.70
11501;DHT22;5807;51.606;7.624;2022-08-21T10:07:07;26.10;92.90
11501;DHT22;5807;51.606;7.624;2022-08-21T10:12:12;25.10;92.00
11501;DHT22;5807;51.606;7.624;2022-08-21T10:14:50;25.10;92.40
11501;DHT22;5807;51.606;7.624;2022-08-21T10:17:23;25.20;91.50
11501;DHT22;5807;51.606;7.624;2022-08-21T10:20:03;25.30;91.30
11501;DHT22;5807;51.606;7.624;2022-08-21T10:22:45;26.00;91.60
11501;DHT22;5807;51.606;7.624;2022-08-21T10:25:21;26.20;91.10
11501;DHT22;5807;51.606;7.624;2022-08-21T10:27:57;26.20;91.80
11501;DHT22;5807;51.606;7.624;2022-08-21T10:30:33;26.50;92.70
11501;DHT22;5807;51.606;7.624;2022-08-21T10:33:13;26.30;90.00
11501;DHT22;5807;51.606;7.624;2022-08-21T10:35:47;26.40;90.10
11501;DHT22;5807;51.606;7.624;2022-08-21T10:38:41;26.50;90.80
11501;DHT22;5807;51.606;7.624;2022-08-21T10:41:18;26.40;86.70
11501;DHT22;5807;51.606;7.624;2022-08-21T10:43:56;26.50;87.30
11501;DHT22;5807;51.606;7.624;2022-08-21T10:46:36;26.40;87.70
11501;DHT22;5807;51.606;7.624;2022-08-21T10:49:14;26.00;86.10
11501;DHT22;5807;51.606;7.624;2022-08-21T10:51:52;26.20;87.80
11501;DHT22;5807;51.606;7.624;2022-08-21T10:54:27;26.50;87.50
11501;DHT22;5807;51.606;7.624;2022-08-21T10:56:59;26.70;88.00
11501;DHT22;5807;51.606;7.624;2022-08-21T10:59:39;27.00;88.40
11501;DHT22;5807;51.606;7.624;2022-08-21T11:02:25;27.10;82.30
11501;DHT22;5807;51.606;7.624;2022-08-21T11:05:01;27.30;85.10
11501;DHT22;5807;51.606;7.624;2022-08-21T11:07:32;27.30;82.90
11501;DHT22;5807;51.606;7.624;2022-08-21T11:10:05;27.50;82.80
11501;DHT22;5807;51.606;7.624;2022-08-21T11:13:07;27.60;80.70
11501;DHT22;5807;51.606;7.624;2022-08-21T11:15:45;27.30;81.10
11501;DHT22;5807;51.606;7.624;2022-08-21T11:18:22;27.40;80.20
11501;DHT22;5807;51.606;7.624;2022-08-21T11:20:59;27.10;79.50
11501;DHT22;5807;51.606;7.624;2022-08-21T11:23:36;27.30;82.70
11501;DHT22;5807;51.606;7.624;2022-08-21T11:26:08;27.30;79.80
11501;DHT22;5807;51.606;7.624;2022-08-21T11:28:41;27.60;80.70
11501;DHT22;5807;51.606;7.624;2022-08-21T11:31:18;27.80;82.00
11501;DHT22;5807;51.606;7.624;2022-08-21T11:34:00;27.80;79.40
11501;DHT22;5807;51.606;7.624;2022-08-21T11:36:36;27.80;78.00
11501;DHT22;5807;51.606;7.624;2022-08-21T11:39:12;28.00;80.70
11501;DHT22;5807;51.606;7.624;2022-08-21T11:41:49;27.90;77.90
11501;DHT22;5807;51.606;7.624;2022-08-21T11:44:26;27.80;77.20
11501;DHT22;5807;51.606;7.624;2022-08-21T11:47:02;28.10;80.10
11501;DHT22;5807;51.606;7.624;2022-08-21T11:49:44;28.40;76.60
11501;DHT22;5807;51.606;7.624;2022-08-21T11:52:20;28.40;73.50
11501;DHT22;5807;51.606;7.624;2022-08-21T11:54:52;28.40;77.40
11501;DHT22;5807;51.606;7.624;2022-08-21T11:57:31;28.00;71.00
11501;DHT22;5807;51.606;7.624;2022-08-21T12:00:03;27.90;74.30
11501;DHT22;5807;51.606;7.624;2022-08-21T12:02:43;27.80;76.60
11501;DHT22;5807;51.606;7.624;2022-08-21T12:05:23;27.70;73.30
11501;DHT22;5807;51.606;7.624;2022-08-21T12:08:05;27.90;74.70
11501;DHT22;5807;51.606;7.624;2022-08-21T12:10:39;27.80;73.40
11501;DHT22;5807;51.606;7.624;2022-08-21T12:13:09;27.70;71.70
11501;DHT22;5807;51.606;7.624;2022-08-21T12:15:37;27.70;75.30
11501;DHT22;5807;51.606;7.624;2022-08-21T12:18:22;28.00;74.40
11501;DHT22;5807;51.606;7.624;2022-08-21T12:21:15;27.80;69.80
11501;DHT22;5807;51.606;7.624;2022-08-21T12:23:47;27.80;75.40
11501;DHT22;5807;51.606;7.624;2022-08-21T12:26:24;28.00;74.40
11501;DHT22;5807;51.606;7.624;2022-08-21T12:29:04;28.10;73.80
11501;DHT22;5807;51.606;7.624;2022-08-21T12:31:31;28.00;74.50
11501;DHT22;5807;51.606;7.624;2022-08-21T12:34:01;27.80;72.70
11501;DHT22;5807;51.606;7.624;2022-08-21T12:36:40;27.70;72.20
11501;DHT22;5807;51.606;7.624;2022-08-21T12:39:27;27.60;72.90
11501;DHT22;5807;51.606;7.624;2022-08-21T12:42:17;27.30;69.70
11501;DHT22;5807;51.606;7.624;2022-08-21T12:44:48;27.20;71.60
11501;DHT22;5807;51.606;7.624;2022-08-21T12:47:27;27.30;73.60
11501;DHT22;5807;51.606;7.624;2022-08-21T12:50:32;27.00;72.10
11501;DHT22;5807;51.606;7.624;2022-08-21T12:53:05;27.00;70.30
11501;DHT22;5807;51.606;7.624;2022-08-21T12:55:40;27.30;71.60
11501;DHT22;5807;51.606;7.624;2022-08-21T12:58:16;27.50;71.20
11501;DHT22;5807;51.606;7.624;2022-08-21T13:00:48;27.40;69.00
11501;DHT22;5807;51.606;7.624;2022-08-21T13:03:16;27.30;70.50
11501;DHT22;5807;51.606;7.624;2022-08-21T13:05:43;27.40;73.90
11501;DHT22;5807;51.606;7.624;2022-08-21T13:08:15;27.70;70.80
11501;DHT22;5807;51.606;7.624;2022-08-21T13:14:36;27.90;70.10
11501;DHT22;5807;51.606;7.624;2022-08-21T13:22:13;28.60;70.80
11501;DHT22;5807;51.606;7.624;2022-08-21T13:27:27;28.60;68.00
11501;DHT22;5807;51.606;7.624;2022-08-21T13:30:44;28.60;66.90
11501;DHT22;5807;51.606;7.624;2022-08-21T13:33:25;28.50;68.00
11501;DHT22;5807;51.606;7.624;2022-08-21T13:36:27;28.40;69.70
11501;DHT22;5807;51.606;7.624;2022-08-21T13:39:12;28.30;69.10
11501;DHT22;5807;51.606;7.624;2022-08-21T13:41:55;28.40;71.60
11501;DHT22;5807;51.606;7.624;2022-08-21T13:56:31;28.60;68.70
11501;DHT22;5807;51.606;7.624;2022-08-21T13:59:02;28.70;70.30
11501;DHT22;5807;51.606;7.624;2022-08-21T14:01:49;28.80;70.80
11501;DHT22;5807;51.606;7.624;2022-08-21T14:04:52;28.80;69.90
11501;DHT22;5807;51.606;7.624;2022-08-21T14:07:36;28.90;67.60
11501;DHT22;5807;51.606;7.624;2022-08-21T14:10:20;29.00;65.50
11501;DHT22;5807;51.606;7.624;2022-08-21T14:13:19;28.70;68.00
11501;DHT22;5807;51.606;7.624;2022-08-21T14:16:19;28.80;70.00
11501;DHT22;5807;51.606;7.624;2022-08-21T14:19:07;28.40;70.80
11501;DHT22;5807;51.606;7.624;2022-08-21T14:21:38;28.20;67.40
11501;DHT22;5807;51.606;7.624;2022-08-21T14:24:10;28.30;69.60
11501;DHT22;5807;51.606;7.624;2022-08-21T14:26:49;28.40;70.20
11501;DHT22;5807;51.606;7.624;2022-08-21T14:29:18;28.40;70.40
11501;DHT22;5807;51.606;7.624;2022-08-21T14:31:50;28.30;68.80
11501;DHT22;5807;51.606;7.624;2022-08-21T14:34:17;28.10;68.60
11501;DHT22;5807;51.606;7.624;2022-08-21T14:36:44;28.10;69.80
11501;DHT22;5807;51.606;7.624;2022-08-21T14:39:13;28.00;69.10
11501;DHT22;5807;51.606;7.624;2022-08-21T14:41:40;28.10;73.50
11501;DHT22;5807;51.606;7.624;2022-08-21T14:44:08;27.10;68.70
11501;DHT22;5807;51.606;7.624;2022-08-21T14:46:37;27.00;69.40
11501;DHT22;5807;51.606;7.624;2022-08-21T14:49:04;26.60;67.60
11501;DHT22;5807;51.606;7.624;2022-08-21T14:51:31;26.40;70.40
11501;DHT22;5807;51.606;7.624;2022-08-21T14:53:59;26.40;72.10
11501;DHT22;5807;51.606;7.624;2022-08-21T14:56:27;26.40;72.60
11501;DHT22;5807;51.606;7.624;2022-08-21T14:58:56;26.40;74.10
11501;DHT22;5807;51.606;7.624;2022-08-21T15:01:26;26.40;72.70
11501;DHT22;5807;51.606;7.624;2022-08-21T15:08:47;25.40;68.80
11501;DHT22;5807;51.606;7.624;2022-08-21T15:11:17;25.00;72.30
11501;DHT22;5807;51.606;7.624;2022-08-21T15:13:46;24.80;75.70
11501;DHT22;5807;51.606;7.624;2022-08-21T15:18:54;24.40;72.60
11501;DHT22;5807;51.606;7.624;2022-08-21T15:21:21;24.30;75.10
11501;DHT22;5807;51.606;7.624;2022-08-21T15:23:48;24.20;76.90
11501;DHT22;5807;51.606;7.624;2022-08-21T15:26:15;24.20;79.40
11501;DHT22;5807;51.606;7.624;2022-08-21T15:28:42;24.10;77.80
11501;DHT22;5807;51.606;7.624;2022-08-21T15:31:12;24.30;76.10
11501;DHT22;5807;51.606;7.624;2022-08-21T15:33:40;24.30;75.60
11501;DHT22;5807;51.606;7.624;2022-08-21T15:36:07;24.30;77.30
11501;DHT22;5807;51.606;7.624;2022-08-21T15:38:35;24.40;77.00
11501;DHT22;5807;51.606;7.624;2022-08-21T15:41:06;24.40;76.10
11501;DHT22;5807;51.606;7.624;2022-08-21T15:43:40;24.40;76.00
11501;DHT22;5807;51.606;7.624;2022-08-21T15:56:33;24.50;75.30
11501;DHT22;5807;51.606;7.624;2022-08-21T16:16:34;26.20;75.10
11501;DHT22;5807;51.606;7.624;2022-08-21T16:22:36;26.30;75.10
11501;DHT22;5807;51.606;7.624;2022-08-21T16:28:48;25.60;73.90
11501;DHT22;5807;51.606;7.624;2022-08-21T16:51:19;24.50;77.60
11501;DHT22;5807;51.606;7.624;2022-08-21T17:01:08;24.00;81.20
11501;DHT22;5807;51.606;7.624;2022-08-21T17:10:28;24.00;80.70
11501;DHT22;5807;51.606;7.624;2022-08-21T17:15:38;23.90;81.20
11501;DHT22;5807;51.606;7.624;2022-08-21T17:16:54;23.80;81.20
11501;DHT22;5807;51.606;7.624;2022-08-21T17:40:17;23.20;82.70
11501;DHT22;5807;51.606;7.624;2022-08-21T17:43:17;23.10;84.50
11501;DHT22;5807;51.606;7.624;2022-08-21T17:57:17;22.50;86.90
11501;DHT22;5807;51.606;7.624;2022-08-21T18:00:15;22.40;86.80
11501;DHT22;5807;51.606;7.624;2022-08-21T18:03:03;22.30;88.40
11501;DHT22;5807;51.606;7.624;2022-08-21T18:09:16;22.00;89.10
11501;DHT22;5807;51.606;7.624;2022-08-21T18:25:40;21.10;93.00
11501;DHT22;5807;51.606;7.624;2022-08-21T18:31:19;20.90;93.80
11501;DHT22;5807;51.606;7.624;2022-08-21T18:34:07;20.80;94.90
11501;DHT22;5807;51.606;7.624;2022-08-21T19:15:17;19.50;99.90
11501;DHT22;5807;51.606;7.624;2022-08-21T19:17:47;19.50;99.90
11501;DHT22;5807;51.606;7.624;2022-08-21T19:20:19;19.50;99.90
11501;DHT22;5807;51.606;7.624;2022-08-21T19:22:46;19.40;99.90
11501;DHT22;5807;51.606;7.624;2022-08-21T19:25:13;19.50;99.90
11501;DHT22;5807;51.606;7.624;2022-08-21T19:27:41;19.40;99.90
11501;DHT22;5807;51.606;7.624;2022-08-21T19:30:08;19.40;99.90
11501;DHT22;5807;51.606;7.624;2022-08-21T19:32:36;19.30;99.90
11501;DHT22;5807;51.606;7.624;2022-08-21T19:35:06;19.30;99.90
11501;DHT22;5807;51.606;7.624;2022-08-21T19:37:34;19.30;99.90
11501;DHT22;5807;51.606;7.624;2022-08-21T19:40:01;19.30;99.90
11501;DHT22;5807;51.606;7.624;2022-08-21T19:42:27;19.20;99.90
11501;DHT22;5807;51.606;7.624;2022-08-21T19:44:55;19.20;99.90
11501;DHT22;5807;51.606;7.624;2022-08-21T19:47:21;19.20;99.90
11501;DHT22;5807;51.606;7.624;2022-08-21T19:49:53;19.10;99.90
11501;DHT22;5807;51.606;7.624;2022-08-21T19:59:43;18.70;99.90
11501;DHT22;5807;51.606;7.624;2022-08-21T20:02:12;18.60;99.90
11501;DHT22;5807;51.606;7.624;2022-08-21T20:04:39;18.60;99.90
11501;DHT22;5807;51.606;7.624;2022-08-21T20:07:06;18.60;99.90
11501;DHT22;5807;51.606;7.624;2022-08-21T20:12:04;17.90;99.90
11501;DHT22;5807;51.606;7.624;2022-08-21T20:14:33;18.40;99.90
11501;DHT22;5807;51.606;7.624;2022-08-21T20:17:05;18.30;99.90
11501;DHT22;5807;51.606;7.624;2022-08-21T20:24:29;18.20;99.90
11501;DHT22;5807;51.606;7.624;2022-08-21T20:27:02;18.00;99.90
11501;DHT22;5807;51.606;7.624;2022-08-21T20:29:32;18.00;99.90
11501;DHT22;5807;51.606;7.624;2022-08-21T20:32:01;18.00;99.90
11501;DHT22;5807;51.606;7.624;2022-08-21T20:34:29;17.90;99.90
11501;DHT22;5807;51.606;7.624;2022-08-21T20:36:56;17.80;99.90
11501;DHT22;5807;51.606;7.624;2022-08-21T20:41:51;17.80;99.90
11501;DHT22;5807;51.606;7.624;2022-08-21T20:46:47;17.70;99.90
11501;DHT22;5807;51.606;7.624;2022-08-21T20:49:19;17.70;99.90
11501;DHT22;5807;51.606;7.624;2022-08-21T20:51:49;17.60;99.90
11501;DHT22;5807;51.606;7.624;2022-08-21T20:54:20;17.50;99.90
11501;DHT22;5807;51.606;7.624;2022-08-21T20:56:51;17.50;99.90
11501;DHT22;5807;51.606;7.624;2022-08-21T20:59:31;17.50;99.90
11501;DHT22;5807;51.606;7.624;2022-08-21T21:02:09;17.50;99.90
11501;DHT22;5807;51.606;7.624;2022-08-21T21:04:45;17.50;99.90
11501;DHT22;5807;51.606;7.624;2022-08-21T21:07:17;17.50;99.90
11501;DHT22;5807;51.606;7.624;2022-08-21T21:09:48;17.40;99.90
11501;DHT22;5807;51.606;7.624;2022-08-21T21:12:20;17.40;99.90
11501;DHT22;5807;51.606;7.624;2022-08-21T21:14:54;17.30;99.90
11501;DHT22;5807;51.606;7.624;2022-08-21T21:17:39;17.30;99.90
11501;DHT22;5807;51.606;7.624;2022-08-21T21:20:10;17.30;99.90
11501;DHT22;5807;51.606;7.624;2022-08-21T21:22:45;17.30;99.90
11501;DHT22;5807;51.606;7.624;2022-08-21T21:25:17;17.20;99.90
11501;DHT22;5807;51.606;7.624;2022-08-21T21:27:52;17.30;99.90
11501;DHT22;5807;51.606;7.624;2022-08-21T21:30:23;17.20;99.90
11501;DHT22;5807;51.606;7.624;2022-08-21T21:32:52;17.20;99.90
11501;DHT22;5807;51.606;7.624;2022-08-21T21:35:30;17.20;99.90
11501;DHT22;5807;51.606;7.624;2022-08-21T21:38:02;17.20;99.90
11501;DHT22;5807;51.606;7.624;2022-08-21T21:40:43;17.20;99.90
11501;DHT22;5807;51.606;7.624;2022-08-21T21:43:24;17.20;99.90
11501;DHT22;5807;51.606;7.624;2022-08-21T21:46:05;17.20;99.90
11501;DHT22;5807;51.606;7.624;2022-08-21T21:48:45;17.20;99.90
11501;DHT22;5807;51.606;7.624;2022-08-21T21:51:19;17.10;99.90
11501;DHT22;5807;51.606;7.624;2022-08-21T21:53:55;17.10;99.90
11501;DHT22;5807;51.606;7.624;2022-08-21T21:56:33;17.10;99.90
11501;DHT22;5807;51.606;7.624;2022-08-21T22:02:08;17.10;99.90
11501;DHT22;5807;51.606;7.624;2022-08-21T22:04:41;17.10;99.90
11501;DHT22;5807;51.606;7.624;2022-08-21T22:07:15;17.10;99.90
11501;DHT22;5807;51.606;7.624;2022-08-21T22:09:52;17.10;99.90
11501;DHT22;5807;51.606;7.624;2022-08-21T22:12:30;17.10;99.90
11501;DHT22;5807;51.606;7.624;2022-08-21T22:15:00;17.10;99.90
11501;DHT22;5807;51.606;7.624;2022-08-21T22:17:35;17.10;99.90
11501;DHT22;5807;51.606;7.624;2022-08-21T22:20:06;17.10;99.90
11501;DHT22;5807;51.606;7.624;2022-08-21T22:22:37;17.10;99.90
11501;DHT22;5807;51.606;7.624;2022-08-21T22:25:12;17.10;99.90
11501;DHT22;5807;51.606;7.624;2022-08-21T22:27:41;17.10;99.90
11501;DHT22;5807;51.606;7.624;2022-08-21T22:30:15;17.10;99.90
11501;DHT22;5807;51.606;7.624;2022-08-21T22:32:45;17.00;99.90
11501;DHT22;5807;51.606;7.624;2022-08-21T22:35:17;17.00;99.90
11501;DHT22;5807;51.606;7.624;2022-08-21T22:37:46;17.00;99.90
11501;DHT22;5807;51.606;7.624;2022-08-21T22:40:21;17.00;99.90
11501;DHT22;5807;51.606;7.624;2022-08-21T22:43:01;16.90;99.90
11501;DHT22;5807;51.606;7.624;2022-08-21T22:45:29;16.90;99.90
11501;DHT22;5807;51.606;7.624;2022-08-21T22:48:04;16.70;99.90
11501;DHT22;5807;51.606;7.624;2022-08-21T22:50:32;16.70;99.90
11501;DHT22;5807;51.606;7.624;2022-08-21T22:53:02;16.70;99.90
11501;DHT22;5807;51.606;7.624;2022-08-21T22:55:34;16.70;99.90
11501;DHT22;5807;51.606;7.624;2022-08-21T22:58:06;16.70;99.90
11501;DHT22;5807;51.606;7.624;2022-08-21T23:00:42;16.70;99.90
11501;DHT22;5807;51.606;7.624;2022-08-21T23:03:17;16.70;99.90
11501;DHT22;5807;51.606;7.624;2022-08-21T23:05:46;16.70;99.90
11501;DHT22;5807;51.606;7.624;2022-08-21T23:08:20;16.60;99.90
11501;DHT22;5807;51.606;7.624;2022-08-21T23:10:48;16.50;99.90
11501;DHT22;5807;51.606;7.624;2022-08-21T23:13:17;16.60;99.90
11501;DHT22;5807;51.606;7.624;2022-08-21T23:15:50;16.50;99.90
11501;DHT22;5807;51.606;7.624;2022-08-21T23:18:28;16.50;99.90
11501;DHT22;5807;51.606;7.624;2022-08-21T23:21:02;16.50;99.90
11501;DHT22;5807;51.606;7.624;2022-08-21T23:23:38;16.50;99.90
11501;DHT22;5807;51.606;7.624;2022-08-21T23:26:18;16.50;99.90
11501;DHT22;5807;51.606;7.624;2022-08-21T23:28:56;16.40;99.90
11501;DHT22;5807;51.606;7.624;2022-08-21T23:31:31;16.50;99.90
11501;DHT22;5807;51.606;7.624;2022-08-21T23:34:11;16.50;99.90
11501;DHT22;5807;51.606;7.624;2022-08-21T23:36:51;16.50;99.90
11501;DHT22;5807;51.606;7.624;2022-08-21T23:39:55;16.40;99.90
11501;DHT22;5807;51.606;7.624;2022-08-21T23:42:46;16.30;99.90
11501;DHT22;5807;51.606;7.624;2022-08-21T23:45:21;16.40;99.90